sensor_id;sensor_type;location;lat;lon;timestamp;pressure;altitude;pressure_sealevel;temperature;humidity
39891;BME280;25564;53.312;9.790;2023-07-31T00:01:39;100092.00;;;14.17;100.00
39891;BME280;25564;53.312;9.790;2023-07-31T00:04:10;100119.78;;;14.33;100.00
39891;BME280;25564;53.312;9.790;2023-07-31T00:06:42;100100.06;;;14.16;100.00
39891;BME280;25564;53.312;9.790;2023-07-31T00:09:13;100126.84;;;14.34;100.00
39891;BME280;25564;53.312;9.790;2023-07-31T00:11:45;100144.38;;;14.42;100.00
39891;BME280;25564;53.312;9.790;2023-07-31T00:14:17;100062.75;;;13.94;100.00
39891;BME280;25564;53.312;9.790;2023-07-31T00:16:48;100152.38;;;14.42;100.00
39891;BME280;25564;53.312;9.790;2023-07-31T00:19:22;100123.19;;;14.37;100.00
39891;BME280;25564;53.312;9.790;2023-07-31T00:21:54;100122.25;;;14.38;100.00
39891;BME280;25564;53.312;9.790;2023-07-31T00:24:26;100113.25;;;14.40;100.00
39891;BME280;25564;53.312;9.790;2023-07-31T00:26:57;100130.28;;;14.58;100.00
39891;BME280;25564;53.312;9.790;2023-07-31T00:29:28;100111.81;;;14.54;100.00
39891;BME280;25564;53.312;9.790;2023-07-31T00:32:00;100082.06;;;14.43;100.00
39891;BME280;25564;53.312;9.790;2023-07-31T00:34:31;100106.13;;;14.61;100.00
39891;BME280;25564;53.312;9.790;2023-07-31T00:37:03;100111.78;;;14.74;100.00
39891;BME280;25564;53.312;9.790;2023-07-31T00:39:34;100109.84;;;14.78;100.00
39891;BME280;25564;53.312;9.790;2023-07-31T00:42:06;100122.44;;;14.94;100.00
39891;BME280;25564;53.312;9.790;2023-07-31T00:44:38;100088.47;;;14.78;100.00
39891;BME280;25564;53.312;9.790;2023-07-31T00:47:09;100038.00;;;14.53;100.00
39891;BME280;25564;53.312;9.790;2023-07-31T00:49:40;100110.69;;;14.98;100.00
39891;BME280;25564;53.312;9.790;2023-07-31T00:52:12;100033.00;;;14.64;100.00
39891;BME280;25564;53.312;9.790;2023-07-31T00:54:44;100089.53;;;14.94;100.00
39891;BME280;25564;53.312;9.790;2023-07-31T00:57:15;100104.25;;;15.02;100.00
39891;BME280;25564;53.312;9.790;2023-07-31T00:59:47;100114.88;;;15.04;100.00
39891;BME280;25564;53.312;9.790;2023-07-31T01:02:18;100099.47;;;14.90;100.00
39891;BME280;25564;53.312;9.790;2023-07-31T01:04:50;100039.00;;;14.50;100.00
39891;BME280;25564;53.312;9.790;2023-07-31T01:07:42;100096.06;;;14.87;100.00
39891;BME280;25564;53.312;9.790;2023-07-31T01:10:26;100051.03;;;14.59;100.00
39891;BME280;25564;53.312;9.790;2023-07-31T01:12:58;100098.94;;;14.82;100.00
39891;BME280;25564;53.312;9.790;2023-07-31T01:15:30;100053.50;;;14.63;100.00
39891;BME280;25564;53.312;9.790;2023-07-31T01:18:01;100081.06;;;14.84;100.00
39891;BME280;25564;53.312;9.790;2023-07-31T01:20:34;100098.53;;;14.91;100.00
39891;BME280;25564;53.312;9.790;2023-07-31T01:26:11;100082.31;;;14.96;100.00
39891;BME280;25564;53.312;9.790;2023-07-31T01:28:55;100090.25;;;14.97;100.00
39891;BME280;25564;53.312;9.790;2023-07-31T01:31:29;100072.75;;;14.90;100.00
39891;BME280;25564;53.312;9.790;2023-07-31T01:34:01;100066.28;;;14.96;100.00
39891;BME280;25564;53.312;9.790;2023-07-31T01:36:33;100088.09;;;15.05;100.00
39891;BME280;25564;53.312;9.790;2023-07-31T01:39:05;100058.19;;;14.97;100.00
39891;BME280;25564;53.312;9.790;2023-07-31T01:41:36;100072.72;;;15.11;100.00
39891;BME280;25564;53.312;9.790;2023-07-31T01:44:07;100064.19;;;15.02;100.00
39891;BME280;25564;53.312;9.790;2023-07-31T01:46:39;100051.25;;;14.93;100.00
39891;BME280;25564;53.312;9.790;2023-07-31T01:49:11;100059.63;;;15.04;100.00
39891;BME280;25564;53.312;9.790;2023-07-31T01:51:42;99984.78;;;14.67;100.00
39891;BME280;25564;53.312;9.790;2023-07-31T01:54:13;100000.97;;;14.83;100.00
39891;BME280;25564;53.312;9.790;2023-07-31T01:56:45;100047.56;;;15.15;100.00
39891;BME280;25564;53.312;9.790;2023-07-31T01:59:16;99986.84;;;14.81;100.00
39891;BME280;25564;53.312;9.790;2023-07-31T02:01:48;100051.41;;;15.28;100.00
39891;BME280;25564;53.312;9.790;2023-07-31T02:04:20;100027.94;;;15.16;100.00
39891;BME280;25564;53.312;9.790;2023-07-31T02:06:53;100036.53;;;15.22;100.00
39891;BME280;25564;53.312;9.790;2023-07-31T02:09:24;100034.94;;;15.18;100.00
39891;BME280;25564;53.312;9.790;2023-07-31T02:11:55;100046.50;;;15.37;100.00
39891;BME280;25564;53.312;9.790;2023-07-31T02:14:27;99988.28;;;15.07;100.00
39891;BME280;25564;53.312;9.790;2023-07-31T02:16:58;100038.53;;;15.36;100.00
39891;BME280;25564;53.312;9.790;2023-07-31T02:19:29;100028.72;;;15.36;100.00
39891;BME280;25564;53.312;9.790;2023-07-31T02:22:01;99962.16;;;14.94;100.00
39891;BME280;25564;53.312;9.790;2023-07-31T02:24:32;100022.78;;;15.30;100.00
39891;BME280;25564;53.312;9.790;2023-07-31T02:27:04;100017.59;;;15.27;100.00
39891;BME280;25564;53.312;9.790;2023-07-31T02:29:35;100007.06;;;15.24;100.00
39891;BME280;25564;53.312;9.790;2023-07-31T02:32:07;100006.13;;;15.25;100.00
39891;BME280;25564;53.312;9.790;2023-07-31T02:34:38;99977.59;;;15.07;100.00
39891;BME280;25564;53.312;9.790;2023-07-31T02:37:10;100008.78;;;15.25;100.00
39891;BME280;25564;53.312;9.790;2023-07-31T02:39:41;100005.47;;;15.20;100.00
39891;BME280;25564;53.312;9.790;2023-07-31T02:42:13;99940.19;;;14.88;100.00
39891;BME280;25564;53.312;9.790;2023-07-31T02:44:44;99945.53;;;14.88;100.00
39891;BME280;25564;53.312;9.790;2023-07-31T02:47:16;100011.53;;;15.23;100.00
39891;BME280;25564;53.312;9.790;2023-07-31T02:49:47;99955.84;;;14.95;100.00
39891;BME280;25564;53.312;9.790;2023-07-31T02:52:18;100009.56;;;15.27;100.00
39891;BME280;25564;53.312;9.790;2023-07-31T02:54:50;99953.84;;;15.00;100.00
39891;BME280;25564;53.312;9.790;2023-07-31T02:57:22;99962.50;;;15.05;100.00
39891;BME280;25564;53.312;9.790;2023-07-31T02:59:53;99979.44;;;15.23;100.00
39891;BME280;25564;53.312;9.790;2023-07-31T03:02:25;99939.53;;;15.01;100.00
39891;BME280;25564;53.312;9.790;2023-07-31T03:04:56;99988.03;;;15.30;100.00
39891;BME280;25564;53.312;9.790;2023-07-31T03:07:28;99950.56;;;15.13;100.00
39891;BME280;25564;53.312;9.790;2023-07-31T03:10:01;99992.94;;;15.39;100.00
39891;BME280;25564;53.312;9.790;2023-07-31T03:12:32;99991.84;;;15.43;100.00
39891;BME280;25564;53.312;9.790;2023-07-31T03:15:04;99965.00;;;15.27;100.00
39891;BME280;25564;53.312;9.790;2023-07-31T03:17:36;100002.97;;;15.53;100.00
39891;BME280;25564;53.312;9.790;2023-07-31T03:20:08;99993.44;;;15.47;100.00
39891;BME280;25564;53.312;9.790;2023-07-31T03:22:39;99960.38;;;15.31;100.00
39891;BME280;25564;53.312;9.790;2023-07-31T03:25:11;99948.03;;;15.28;100.00
39891;BME280;25564;53.312;9.790;2023-07-31T03:27:43;99972.69;;;15.52;100.00
39891;BME280;25564;53.312;9.790;2023-07-31T03:30:15;99936.38;;;15.29;100.00
39891;BME280;25564;53.312;9.790;2023-07-31T03:32:46;99906.50;;;15.21;100.00
39891;BME280;25564;53.312;9.790;2023-07-31T03:35:18;99962.94;;;15.51;100.00
39891;BME280;25564;53.312;9.790;2023-07-31T03:37:49;99928.44;;;15.28;100.00
39891;BME280;25564;53.312;9.790;2023-07-31T03:40:21;99974.34;;;15.55;100.00
39891;BME280;25564;53.312;9.790;2023-07-31T03:42:52;99966.78;;;15.46;100.00
39891;BME280;25564;53.312;9.790;2023-07-31T03:45:24;99904.19;;;15.14;100.00
39891;BME280;25564;53.312;9.790;2023-07-31T03:47:55;99957.56;;;15.51;100.00
39891;BME280;25564;53.312;9.790;2023-07-31T03:50:27;99974.25;;;15.56;100.00
39891;BME280;25564;53.312;9.790;2023-07-31T03:52:58;99942.22;;;15.37;100.00
39891;BME280;25564;53.312;9.790;2023-07-31T03:55:30;99971.81;;;15.52;100.00
39891;BME280;25564;53.312;9.790;2023-07-31T03:58:01;99933.94;;;15.25;100.00
39891;BME280;25564;53.312;9.790;2023-07-31T04:00:33;99962.66;;;15.38;100.00
39891;BME280;25564;53.312;9.790;2023-07-31T04:03:05;99958.25;;;15.37;100.00
39891;BME280;25564;53.312;9.790;2023-07-31T04:05:38;99888.78;;;15.01;100.00
39891;BME280;25564;53.312;9.790;2023-07-31T04:08:09;99934.88;;;15.24;100.00
39891;BME280;25564;53.312;9.790;2023-07-31T04:10:41;99976.53;;;15.47;100.00
39891;BME280;25564;53.312;9.790;2023-07-31T04:13:12;99957.25;;;15.40;100.00
39891;BME280;25564;53.312;9.790;2023-07-31T04:15:48;99914.25;;;15.09;100.00
39891;BME280;25564;53.312;9.790;2023-07-31T04:18:22;99958.34;;;15.36;100.00
39891;BME280;25564;53.312;9.790;2023-07-31T04:20:53;99973.38;;;15.38;100.00
39891;BME280;25564;53.312;9.790;2023-07-31T04:23:25;99990.84;;;15.46;100.00
39891;BME280;25564;53.312;9.790;2023-07-31T04:25:57;99987.22;;;15.47;100.00
39891;BME280;25564;53.312;9.790;2023-07-31T04:28:28;99960.38;;;15.31;100.00
39891;BME280;25564;53.312;9.790;2023-07-31T04:31:00;99967.00;;;15.41;100.00
39891;BME280;25564;53.312;9.790;2023-07-31T04:33:31;99977.84;;;15.38;100.00
39891;BME280;25564;53.312;9.790;2023-07-31T04:36:03;99968.47;;;15.29;100.00
39891;BME280;25564;53.312;9.790;2023-07-31T04:38:34;99970.84;;;15.35;100.00
39891;BME280;25564;53.312;9.790;2023-07-31T04:41:07;99974.31;;;15.37;100.00
39891;BME280;25564;53.312;9.790;2023-07-31T04:43:39;99982.03;;;15.44;100.00
39891;BME280;25564;53.312;9.790;2023-07-31T04:46:11;99967.16;;;15.38;100.00
39891;BME280;25564;53.312;9.790;2023-07-31T04:48:42;99956.53;;;15.36;100.00
39891;BME280;25564;53.312;9.790;2023-07-31T04:51:14;99971.88;;;15.50;100.00
39891;BME280;25564;53.312;9.790;2023-07-31T04:53:45;99974.22;;;15.39;100.00
39891;BME280;25564;53.312;9.790;2023-07-31T04:56:17;99952.84;;;15.39;100.00
39891;BME280;25564;53.312;9.790;2023-07-31T04:58:48;99892.06;;;15.07;100.00
39891;BME280;25564;53.312;9.790;2023-07-31T05:01:20;99950.66;;;15.47;100.00
39891;BME280;25564;53.312;9.790;2023-07-31T05:03:51;99937.50;;;15.43;100.00
39891;BME280;25564;53.312;9.790;2023-07-31T05:06:23;99946.72;;;15.54;100.00
39891;BME280;25564;53.312;9.790;2023-07-31T05:08:54;99952.41;;;15.65;100.00
39891;BME280;25564;53.312;9.790;2023-07-31T05:11:26;99883.78;;;15.30;100.00
39891;BME280;25564;53.312;9.790;2023-07-31T05:13:57;99903.22;;;15.51;100.00
39891;BME280;25564;53.312;9.790;2023-07-31T05:16:28;99946.19;;;15.82;100.00
39891;BME280;25564;53.312;9.790;2023-07-31T05:19:01;99953.50;;;15.96;100.00
39891;BME280;25564;53.312;9.790;2023-07-31T05:21:32;99925.81;;;15.80;100.00
39891;BME280;25564;53.312;9.790;2023-07-31T05:24:05;99888.06;;;15.68;100.00
39891;BME280;25564;53.312;9.790;2023-07-31T05:26:36;99943.59;;;15.98;100.00
39891;BME280;25564;53.312;9.790;2023-07-31T05:29:09;99903.94;;;15.72;100.00
39891;BME280;25564;53.312;9.790;2023-07-31T05:31:40;99892.31;;;15.73;100.00
39891;BME280;25564;53.312;9.790;2023-07-31T05:34:12;99922.50;;;15.92;100.00
39891;BME280;25564;53.312;9.790;2023-07-31T05:36:43;99869.50;;;15.65;100.00
39891;BME280;25564;53.312;9.790;2023-07-31T05:39:15;99911.66;;;15.95;100.00
39891;BME280;25564;53.312;9.790;2023-07-31T05:41:47;99927.75;;;16.11;100.00
39891;BME280;25564;53.312;9.790;2023-07-31T05:44:18;99924.84;;;16.15;100.00
39891;BME280;25564;53.312;9.790;2023-07-31T05:46:50;99896.28;;;15.98;100.00
39891;BME280;25564;53.312;9.790;2023-07-31T05:49:21;99927.19;;;16.21;100.00
39891;BME280;25564;53.312;9.790;2023-07-31T05:51:52;99905.41;;;16.12;100.00
39891;BME280;25564;53.312;9.790;2023-07-31T05:54:24;99924.97;;;16.29;100.00
39891;BME280;25564;53.312;9.790;2023-07-31T05:56:55;99902.84;;;16.26;100.00
39891;BME280;25564;53.312;9.790;2023-07-31T05:59:27;99924.63;;;16.35;100.00
39891;BME280;25564;53.312;9.790;2023-07-31T06:01:59;99909.34;;;16.38;100.00
39891;BME280;25564;53.312;9.790;2023-07-31T06:04:30;99919.75;;;16.44;100.00
39891;BME280;25564;53.312;9.790;2023-07-31T06:07:02;99855.41;;;16.12;100.00
39891;BME280;25564;53.312;9.790;2023-07-31T06:09:34;99919.50;;;16.48;100.00
39891;BME280;25564;53.312;9.790;2023-07-31T06:12:06;99922.16;;;16.48;100.00
39891;BME280;25564;53.312;9.790;2023-07-31T06:14:37;99918.53;;;16.49;100.00
39891;BME280;25564;53.312;9.790;2023-07-31T06:17:09;99910.50;;;16.49;100.00
39891;BME280;25564;53.312;9.790;2023-07-31T06:19:40;99836.34;;;16.18;100.00
39891;BME280;25564;53.312;9.790;2023-07-31T06:22:11;99904.84;;;16.71;100.00
39891;BME280;25564;53.312;9.790;2023-07-31T06:24:43;99851.59;;;16.49;100.00
39891;BME280;25564;53.312;9.790;2023-07-31T06:27:15;99888.75;;;16.71;100.00
39891;BME280;25564;53.312;9.790;2023-07-31T06:29:46;99902.59;;;16.79;100.00
39891;BME280;25564;53.312;9.790;2023-07-31T06:32:19;99891.69;;;16.82;100.00
39891;BME280;25564;53.312;9.790;2023-07-31T06:34:50;99822.22;;;16.48;100.00
39891;BME280;25564;53.312;9.790;2023-07-31T06:37:22;99870.94;;;16.86;100.00
39891;BME280;25564;53.312;9.790;2023-07-31T06:39:53;99879.41;;;16.94;100.00
39891;BME280;25564;53.312;9.790;2023-07-31T06:42:25;99880.19;;;17.12;100.00
39891;BME280;25564;53.312;9.790;2023-07-31T06:44:56;99877.16;;;17.18;100.00
39891;BME280;25564;53.312;9.790;2023-07-31T06:47:28;99885.59;;;17.26;100.00
39891;BME280;25564;53.312;9.790;2023-07-31T06:49:59;99858.56;;;17.15;100.00
39891;BME280;25564;53.312;9.790;2023-07-31T06:52:31;99862.97;;;17.16;100.00
39891;BME280;25564;53.312;9.790;2023-07-31T06:55:21;99824.50;;;17.01;100.00
39891;BME280;25564;53.312;9.790;2023-07-31T06:57:54;99903.41;;;17.43;100.00
39891;BME280;25564;53.312;9.790;2023-07-31T07:00:26;99873.66;;;17.31;100.00
39891;BME280;25564;53.312;9.790;2023-07-31T07:02:58;99918.28;;;17.48;100.00
39891;BME280;25564;53.312;9.790;2023-07-31T07:05:30;99911.44;;;17.43;100.00
39891;BME280;25564;53.312;9.790;2023-07-31T07:08:02;99890.69;;;17.30;100.00
39891;BME280;25564;53.312;9.790;2023-07-31T07:10:33;99864.97;;;17.12;100.00
39891;BME280;25564;53.312;9.790;2023-07-31T07:13:05;99887.88;;;17.18;100.00
39891;BME280;25564;53.312;9.790;2023-07-31T07:15:36;99819.59;;;16.78;100.00
39891;BME280;25564;53.312;9.790;2023-07-31T07:18:07;99885.78;;;17.23;100.00
39891;BME280;25564;53.312;9.790;2023-07-31T07:20:39;99872.41;;;17.07;100.00
39891;BME280;25564;53.312;9.790;2023-07-31T07:23:11;99821.06;;;16.83;100.00
39891;BME280;25564;53.312;9.790;2023-07-31T07:25:44;99886.38;;;17.28;100.00
39891;BME280;25564;53.312;9.790;2023-07-31T07:28:16;99884.22;;;17.35;100.00
39891;BME280;25564;53.312;9.790;2023-07-31T07:30:52;99879.16;;;17.44;100.00
39891;BME280;25564;53.312;9.790;2023-07-31T07:33:25;99872.47;;;17.51;100.00
39891;BME280;25564;53.312;9.790;2023-07-31T07:36:00;99834.88;;;17.37;100.00
39891;BME280;25564;53.312;9.790;2023-07-31T07:38:32;99874.28;;;17.67;100.00
39891;BME280;25564;53.312;9.790;2023-07-31T07:41:03;99808.53;;;17.29;100.00
39891;BME280;25564;53.312;9.790;2023-07-31T07:43:35;99805.09;;;17.42;100.00
39891;BME280;25564;53.312;9.790;2023-07-31T07:46:06;99872.78;;;17.91;100.00
39891;BME280;25564;53.312;9.790;2023-07-31T07:48:38;99872.00;;;17.89;100.00
39891;BME280;25564;53.312;9.790;2023-07-31T07:51:09;99876.41;;;17.90;100.00
39891;BME280;25564;53.312;9.790;2023-07-31T07:53:41;99867.97;;;17.82;100.00
39891;BME280;25564;53.312;9.790;2023-07-31T07:56:12;99798.88;;;17.41;100.00
39891;BME280;25564;53.312;9.790;2023-07-31T07:58:43;99874.09;;;17.84;100.00
39891;BME280;25564;53.312;9.790;2023-07-31T08:01:15;99802.16;;;17.46;100.00
39891;BME280;25564;53.312;9.790;2023-07-31T08:03:47;99844.28;;;17.88;100.00
39891;BME280;25564;53.312;9.790;2023-07-31T08:06:19;99849.00;;;17.99;100.00
39891;BME280;25564;53.312;9.790;2023-07-31T08:08:50;99845.94;;;18.19;100.00
39891;BME280;25564;53.312;9.790;2023-07-31T08:11:22;99826.56;;;18.14;100.00
39891;BME280;25564;53.312;9.790;2023-07-31T08:13:54;99841.91;;;18.26;100.00
39891;BME280;25564;53.312;9.790;2023-07-31T08:16:26;99832.50;;;18.34;100.00
39891;BME280;25564;53.312;9.790;2023-07-31T08:18:58;99811.69;;;18.09;100.00
39891;BME280;25564;53.312;9.790;2023-07-31T08:21:31;99781.31;;;17.94;100.00
39891;BME280;25564;53.312;9.790;2023-07-31T08:24:02;99810.84;;;18.08;100.00
39891;BME280;25564;53.312;9.790;2023-07-31T08:26:34;99832.78;;;18.29;100.00
39891;BME280;25564;53.312;9.790;2023-07-31T08:29:05;99831.94;;;18.28;100.00
39891;BME280;25564;53.312;9.790;2023-07-31T08:31:37;99806.53;;;18.06;100.00
39891;BME280;25564;53.312;9.790;2023-07-31T08:34:08;99830.59;;;18.07;100.00
39891;BME280;25564;53.312;9.790;2023-07-31T08:36:40;99816.00;;;17.97;100.00
39891;BME280;25564;53.312;9.790;2023-07-31T08:39:12;99807.09;;;17.96;100.00
39891;BME280;25564;53.312;9.790;2023-07-31T08:41:44;99813.34;;;17.97;100.00
39891;BME280;25564;53.312;9.790;2023-07-31T08:44:15;99808.81;;;17.97;100.00
39891;BME280;25564;53.312;9.790;2023-07-31T08:46:48;99798.09;;;17.97;100.00
39891;BME280;25564;53.312;9.790;2023-07-31T08:49:20;99798.28;;;17.94;100.00
39891;BME280;25564;53.312;9.790;2023-07-31T08:51:54;99768.75;;;17.80;100.00
39891;BME280;25564;53.312;9.790;2023-07-31T08:54:25;99808.16;;;17.94;100.00
39891;BME280;25564;53.312;9.790;2023-07-31T08:57:03;99808.13;;;17.80;100.00
39891;BME280;25564;53.312;9.790;2023-07-31T08:59:36;99794.53;;;17.69;100.00
39891;BME280;25564;53.312;9.790;2023-07-31T09:02:11;99792.81;;;17.68;100.00
39891;BME280;25564;53.312;9.790;2023-07-31T09:04:45;99803.66;;;17.66;100.00
39891;BME280;25564;53.312;9.790;2023-07-31T09:07:17;99794.13;;;17.60;100.00
39891;BME280;25564;53.312;9.790;2023-07-31T09:09:48;99789.16;;;17.69;100.00
39891;BME280;25564;53.312;9.790;2023-07-31T09:12:20;99780.72;;;17.75;100.00
39891;BME280;25564;53.312;9.790;2023-07-31T09:14:51;99781.31;;;17.66;100.00
39891;BME280;25564;53.312;9.790;2023-07-31T09:17:30;99792.50;;;17.72;100.00
39891;BME280;25564;53.312;9.790;2023-07-31T09:20:19;99747.91;;;17.41;100.00
39891;BME280;25564;53.312;9.790;2023-07-31T09:22:51;99773.22;;;17.51;100.00
39891;BME280;25564;53.312;9.790;2023-07-31T09:25:24;99795.56;;;17.52;100.00
39891;BME280;25564;53.312;9.790;2023-07-31T09:27:58;99748.06;;;17.24;100.00
39891;BME280;25564;53.312;9.790;2023-07-31T09:30:31;99795.81;;;17.47;100.00
39891;BME280;25564;53.312;9.790;2023-07-31T09:33:06;99717.47;;;16.98;100.00
39891;BME280;25564;53.312;9.790;2023-07-31T09:35:38;99771.38;;;17.38;100.00
39891;BME280;25564;53.312;9.790;2023-07-31T09:38:13;99798.72;;;17.58;100.00
39891;BME280;25564;53.312;9.790;2023-07-31T09:40:48;99789.03;;;17.56;100.00
39891;BME280;25564;53.312;9.790;2023-07-31T09:43:21;99760.59;;;17.53;100.00
39891;BME280;25564;53.312;9.790;2023-07-31T09:45:56;99778.22;;;17.72;100.00
39891;BME280;25564;53.312;9.790;2023-07-31T09:48:30;99742.97;;;17.63;100.00
39891;BME280;25564;53.312;9.790;2023-07-31T09:51:04;99764.44;;;17.78;100.00
39891;BME280;25564;53.312;9.790;2023-07-31T09:53:36;99769.13;;;17.74;100.00
39891;BME280;25564;53.312;9.790;2023-07-31T09:56:08;99756.84;;;17.70;100.00
39891;BME280;25564;53.312;9.790;2023-07-31T09:58:39;99771.03;;;17.72;100.00
39891;BME280;25564;53.312;9.790;2023-07-31T10:01:11;99764.81;;;17.72;100.00
39891;BME280;25564;53.312;9.790;2023-07-31T10:03:45;99759.25;;;17.75;100.00
39891;BME280;25564;53.312;9.790;2023-07-31T10:06:17;99762.72;;;17.77;100.00
39891;BME280;25564;53.312;9.790;2023-07-31T10:08:52;99745.94;;;17.73;100.00
39891;BME280;25564;53.312;9.790;2023-07-31T10:11:25;99703.47;;;17.51;100.00
39891;BME280;25564;53.312;9.790;2023-07-31T10:13:58;99689.78;;;17.56;100.00
39891;BME280;25564;53.312;9.790;2023-07-31T10:16:31;99723.03;;;17.82;100.00
39891;BME280;25564;53.312;9.790;2023-07-31T10:19:03;99763.16;;;18.12;100.00
39891;BME280;25564;53.312;9.790;2023-07-31T10:21:35;99699.25;;;17.76;100.00
39891;BME280;25564;53.312;9.790;2023-07-31T10:24:09;99763.66;;;18.04;100.00
39891;BME280;25564;53.312;9.790;2023-07-31T10:26:41;99740.38;;;17.90;100.00
39891;BME280;25564;53.312;9.790;2023-07-31T10:29:16;99696.00;;;17.85;100.00
39891;BME280;25564;53.312;9.790;2023-07-31T10:31:50;99749.78;;;18.39;100.00
39891;BME280;25564;53.312;9.790;2023-07-31T10:34:22;99700.72;;;18.22;100.00
39891;BME280;25564;53.312;9.790;2023-07-31T10:37:22;99765.88;;;18.67;100.00
39891;BME280;25564;53.312;9.790;2023-07-31T10:40:10;99748.81;;;18.40;100.00
39891;BME280;25564;53.312;9.790;2023-07-31T10:42:51;99754.19;;;18.40;100.00
39891;BME280;25564;53.312;9.790;2023-07-31T10:45:38;99739.84;;;18.26;100.00
39891;BME280;25564;53.312;9.790;2023-07-31T10:48:15;99746.34;;;18.37;100.00
39891;BME280;25564;53.312;9.790;2023-07-31T10:50:51;99709.53;;;18.24;100.00
39891;BME280;25564;53.312;9.790;2023-07-31T10:56:08;99676.09;;;18.43;100.00
39891;BME280;25564;53.312;9.790;2023-07-31T10:58:44;99725.19;;;18.99;100.00
39891;BME280;25564;53.312;9.790;2023-07-31T11:01:15;99723.47;;;18.98;100.00
39891;BME280;25564;53.312;9.790;2023-07-31T11:03:48;99692.84;;;18.73;100.00
39891;BME280;25564;53.312;9.790;2023-07-31T11:06:20;99692.22;;;18.70;100.00
39891;BME280;25564;53.312;9.790;2023-07-31T11:08:52;99711.72;;;18.86;100.00
39891;BME280;25564;53.312;9.790;2023-07-31T11:11:23;99700.72;;;18.76;100.00
39891;BME280;25564;53.312;9.790;2023-07-31T11:13:55;99694.81;;;18.71;100.00
39891;BME280;25564;53.312;9.790;2023-07-31T11:16:27;99702.31;;;18.66;100.00
39891;BME280;25564;53.312;9.790;2023-07-31T11:18:58;99646.50;;;18.30;100.00
39891;BME280;25564;53.312;9.790;2023-07-31T11:21:30;99706.47;;;18.57;100.00
39891;BME280;25564;53.312;9.790;2023-07-31T11:24:01;99703.31;;;18.51;100.00
39891;BME280;25564;53.312;9.790;2023-07-31T11:26:33;99710.09;;;18.56;100.00
39891;BME280;25564;53.312;9.790;2023-07-31T11:29:11;99654.16;;;18.36;100.00
39891;BME280;25564;53.312;9.790;2023-07-31T11:31:43;99656.72;;;18.38;100.00
39891;BME280;25564;53.312;9.790;2023-07-31T11:34:15;99685.44;;;18.64;100.00
39891;BME280;25564;53.312;9.790;2023-07-31T11:36:54;99661.28;;;18.50;100.00
39891;BME280;25564;53.312;9.790;2023-07-31T11:39:26;99705.69;;;18.82;100.00
39891;BME280;25564;53.312;9.790;2023-07-31T11:41:59;99702.69;;;19.00;100.00
39891;BME280;25564;53.312;9.790;2023-07-31T11:44:39;99682.25;;;18.84;100.00
39891;BME280;25564;53.312;9.790;2023-07-31T11:47:12;99698.56;;;18.81;100.00
39891;BME280;25564;53.312;9.790;2023-07-31T11:49:44;99673.94;;;18.62;100.00
39891;BME280;25564;53.312;9.790;2023-07-31T11:52:15;99665.25;;;18.71;100.00
39891;BME280;25564;53.312;9.790;2023-07-31T11:54:47;99688.59;;;18.83;100.00
39891;BME280;25564;53.312;9.790;2023-07-31T11:57:19;99685.69;;;18.86;100.00
39891;BME280;25564;53.312;9.790;2023-07-31T11:59:51;99691.94;;;19.00;100.00
39891;BME280;25564;53.312;9.790;2023-07-31T12:02:24;99616.53;;;18.63;100.00
39891;BME280;25564;53.312;9.790;2023-07-31T12:04:55;99689.50;;;19.09;100.00
39891;BME280;25564;53.312;9.790;2023-07-31T12:07:27;99670.22;;;19.03;100.00
39891;BME280;25564;53.312;9.790;2023-07-31T12:13:03;99691.75;;;19.03;100.00
39891;BME280;25564;53.312;9.790;2023-07-31T12:15:37;99670.94;;;18.79;100.00
39891;BME280;25564;53.312;9.790;2023-07-31T12:18:10;99679.56;;;18.84;100.00
39891;BME280;25564;53.312;9.790;2023-07-31T12:20:49;99629.75;;;18.66;100.00
39891;BME280;25564;53.312;9.790;2023-07-31T12:23:26;99685.72;;;18.99;100.00
39891;BME280;25564;53.312;9.790;2023-07-31T12:26:12;99674.84;;;19.01;100.00
39891;BME280;25564;53.312;9.790;2023-07-31T12:28:46;99662.44;;;18.85;100.00
39891;BME280;25564;53.312;9.790;2023-07-31T12:31:21;99668.47;;;18.89;100.00
39891;BME280;25564;53.312;9.790;2023-07-31T12:33:53;99638.91;;;18.64;100.00
39891;BME280;25564;53.312;9.790;2023-07-31T12:36:24;99655.78;;;18.78;100.00
39891;BME280;25564;53.312;9.790;2023-07-31T12:38:56;99654.81;;;18.79;100.00
39891;BME280;25564;53.312;9.790;2023-07-31T12:41:29;99657.06;;;18.85;100.00
39891;BME280;25564;53.312;9.790;2023-07-31T12:44:01;99656.44;;;18.94;100.00
39891;BME280;25564;53.312;9.790;2023-07-31T12:46:33;99611.81;;;18.79;100.00
39891;BME280;25564;53.312;9.790;2023-07-31T12:49:04;99637.84;;;19.04;100.00
39891;BME280;25564;53.312;9.790;2023-07-31T12:51:36;99650.84;;;18.98;100.00
39891;BME280;25564;53.312;9.790;2023-07-31T12:54:07;99643.53;;;19.00;100.00
39891;BME280;25564;53.312;9.790;2023-07-31T12:56:40;99648.50;;;19.06;100.00
39891;BME280;25564;53.312;9.790;2023-07-31T12:59:12;99633.00;;;19.09;100.00
39891;BME280;25564;53.312;9.790;2023-07-31T13:01:43;99635.16;;;19.17;100.00
39891;BME280;25564;53.312;9.790;2023-07-31T13:04:15;99633.13;;;18.95;100.00
39891;BME280;25564;53.312;9.790;2023-07-31T13:06:46;99599.53;;;18.75;100.00
39891;BME280;25564;53.312;9.790;2023-07-31T13:09:18;99634.38;;;18.77;100.00
39891;BME280;25564;53.312;9.790;2023-07-31T13:11:49;99608.66;;;18.60;100.00
39891;BME280;25564;53.312;9.790;2023-07-31T13:14:21;99617.50;;;18.62;100.00
39891;BME280;25564;53.312;9.790;2023-07-31T13:16:52;99625.09;;;18.55;100.00
39891;BME280;25564;53.312;9.790;2023-07-31T13:19:24;99620.69;;;18.54;100.00
39891;BME280;25564;53.312;9.790;2023-07-31T13:21:55;99618.63;;;18.58;100.00
39891;BME280;25564;53.312;9.790;2023-07-31T13:24:27;99616.88;;;18.71;100.00